createdAt,value
2018-08-28T07:08:14.822Z,25.16
2018-08-28T07:09:14.857Z,25.24
2018-08-28T07:10:14.961Z,25.20
2018-08-28T07:11:14.951Z,25.28
2018-08-28T07:12:15.023Z,25.43
2018-08-28T07:13:15.046Z,25.56
2018-08-28T07:14:15.128Z,25.59
2018-08-28T07:15:15.159Z,25.47
2018-08-28T07:16:15.197Z,25.64
2018-08-28T07:17:15.248Z,25.44
2018-08-28T07:18:15.307Z,25.65
2018-08-28T07:19:15.380Z,25.61
2018-08-28T07:20:15.404Z,25.44
2018-08-28T07:21:15.460Z,25.02
2018-08-28T07:22:15.508Z,24.47
2018-08-28T07:23:15.560Z,24.83
2018-08-28T07:24:15.642Z,24.31
2018-08-28T07:25:15.660Z,24.32
2018-08-28T07:26:15.715Z,24.67
2018-08-28T07:27:15.772Z,24.87
2018-08-28T07:28:15.835Z,24.88
2018-08-28T07:29:15.892Z,25.05
2018-08-28T07:30:15.924Z,25.13
2018-08-28T07:31:16.050Z,25.39
2018-08-28T07:32:16.040Z,25.37
2018-08-28T07:33:16.080Z,25.83
2018-08-28T07:34:16.158Z,26.06
2018-08-28T07:35:16.200Z,26.22
2018-08-28T07:36:16.239Z,26.11
2018-08-28T07:37:16.325Z,26.12
2018-08-28T07:38:16.354Z,26.29
2018-08-28T07:39:16.423Z,26.43
2018-08-28T07:40:16.453Z,26.43
2018-08-28T07:41:16.505Z,26.36
2018-08-28T07:42:16.566Z,26.27
2018-08-28T07:43:16.612Z,26.25
2018-08-28T07:44:16.686Z,26.43
2018-08-28T07:45:16.717Z,26.44
2018-08-28T07:46:16.775Z,26.46
2018-08-28T07:47:16.842Z,26.54
2018-08-28T07:48:16.897Z,26.52
2018-08-28T07:49:16.938Z,26.57
2018-08-28T07:50:17.007Z,26.40
2018-08-28T07:51:17.057Z,26.49
2018-08-28T07:52:17.095Z,26.32
2018-08-28T07:53:18.866Z,26.57
2018-08-28T07:54:17.202Z,26.80
2018-08-28T07:55:17.272Z,27.04
2018-08-28T07:56:17.304Z,27.10
2018-08-28T07:57:17.380Z,27.21
2018-08-28T07:58:17.418Z,26.61
2018-08-28T07:59:17.467Z,25.52
2018-08-28T08:00:17.526Z,25.37
2018-08-28T08:01:17.644Z,25.84
2018-08-28T08:02:17.656Z,26.15
2018-08-28T08:03:17.690Z,26.24
2018-08-28T08:04:17.736Z,26.57
2018-08-28T08:05:17.788Z,26.89
2018-08-28T08:06:17.846Z,27.14
2018-08-28T08:07:17.928Z,26.95
2018-08-28T08:08:17.972Z,26.99
2018-08-28T08:09:18.005Z,27.35
2018-08-28T08:10:18.067Z,27.67
2018-08-28T08:11:18.114Z,27.88
2018-08-28T08:12:18.166Z,27.80
2018-08-28T08:13:18.252Z,28.07
2018-08-28T08:14:18.288Z,27.88
2018-08-28T08:15:18.333Z,27.46
2018-08-28T08:16:18.527Z,27.61
2018-08-28T08:17:18.439Z,27.92
2018-08-28T08:18:18.520Z,28.16
2018-08-28T08:19:18.577Z,27.71
2018-08-28T08:20:18.598Z,27.39
2018-08-28T08:21:18.656Z,26.67
2018-08-28T08:22:18.794Z,26.36
2018-08-28T08:23:18.809Z,26.86
2018-08-28T08:24:18.819Z,27.13
2018-08-28T08:25:18.892Z,26.98
2018-08-28T08:26:19.887Z,27.17
2018-08-28T08:27:18.985Z,27.54
2018-08-28T08:28:19.084Z,27.48
2018-08-28T08:29:19.093Z,27.48
2018-08-28T08:30:19.152Z,27.36
2018-08-28T08:31:19.208Z,27.16
2018-08-28T08:32:19.256Z,27.20
2018-08-28T08:33:20.205Z,27.54
2018-08-28T08:34:19.397Z,27.19
2018-08-28T08:35:19.451Z,27.39
2018-08-28T08:36:19.480Z,27.57
2018-08-28T08:37:19.548Z,27.92
2018-08-28T08:38:19.591Z,28.11
2018-08-28T08:39:19.668Z,27.64
2018-08-28T08:40:19.709Z,27.26
2018-08-28T08:41:19.760Z,26.96
2018-08-28T08:42:19.808Z,27.19
2018-08-28T08:43:19.866Z,26.86
2018-08-28T08:44:19.947Z,26.69
2018-08-28T08:45:19.975Z,26.06
2018-08-28T08:46:20.039Z,25.98
2018-08-28T08:47:20.090Z,26.25
2018-08-28T08:48:20.156Z,26.15
2018-08-28T08:49:20.216Z,25.94
2018-08-28T08:50:20.272Z,26.15
2018-08-28T08:51:20.317Z,25.91
2018-08-28T08:52:20.360Z,25.93
2018-08-28T08:53:20.436Z,25.64
2018-08-28T08:54:20.499Z,26.22
2018-08-28T08:55:20.530Z,26.65
2018-08-28T08:56:20.589Z,27.20
2018-08-28T08:57:20.642Z,27.66
2018-08-28T08:58:20.700Z,27.86
2018-08-28T08:59:20.784Z,27.59
2018-08-28T09:00:20.802Z,27.66
2018-08-28T09:01:20.861Z,27.54
2018-08-28T09:02:20.914Z,27.31
2018-08-28T09:03:20.968Z,27.39
2018-08-28T09:04:21.071Z,27.38
2018-08-28T09:05:21.078Z,27.39
2018-08-28T09:06:21.134Z,27.24
2018-08-28T09:07:21.189Z,27.01
2018-08-28T09:08:21.250Z,26.64
2018-08-28T09:09:21.320Z,26.69
2018-08-28T09:10:21.359Z,26.81
2018-08-28T09:11:21.417Z,27.20
2018-08-28T09:12:21.489Z,27.39
2018-08-28T09:13:21.567Z,27.13
2018-08-28T09:14:21.601Z,27.33
2018-08-28T09:15:21.633Z,27.62
2018-08-28T09:16:21.715Z,27.59
2018-08-28T09:17:21.749Z,27.33
2018-08-28T09:18:21.810Z,27.48
2018-08-28T09:19:21.887Z,27.77
2018-08-28T09:20:21.915Z,27.98
2018-08-28T09:21:21.992Z,28.32
2018-08-28T09:22:22.033Z,28.56
2018-08-28T09:23:22.082Z,28.80
2018-08-28T09:24:22.135Z,28.82
2018-08-28T09:25:22.225Z,29.37
2018-08-28T09:26:22.273Z,29.56
2018-08-28T09:27:22.334Z,29.26
2018-08-28T09:28:22.371Z,28.72
2018-08-28T09:29:23.409Z,28.07
2018-08-28T09:30:22.481Z,27.48
2018-08-28T09:31:22.577Z,27.58
2018-08-28T09:32:22.712Z,27.58
2018-08-28T09:33:22.649Z,27.88
2018-08-28T09:34:22.715Z,28.25
2018-08-28T09:35:22.760Z,28.22
2018-08-28T09:36:22.860Z,28.44
2018-08-28T09:37:22.883Z,28.80
2018-08-28T09:38:22.944Z,29.03
2018-08-28T09:39:23.004Z,29.25
2018-08-28T09:40:23.052Z,29.31
2018-08-28T09:41:23.942Z,28.29
2018-08-28T09:42:23.156Z,27.51
2018-08-28T09:43:23.241Z,27.19
2018-08-28T09:44:23.276Z,27.42
2018-08-28T09:45:23.330Z,27.79
2018-08-28T09:46:23.514Z,27.86
2018-08-28T09:47:23.462Z,27.42
2018-08-28T09:48:23.538Z,27.32
2018-08-28T09:49:23.559Z,27.21
2018-08-28T09:50:23.704Z,27.46
2018-08-28T09:51:23.670Z,27.91
2018-08-28T09:52:23.746Z,27.66
2018-08-28T09:53:23.887Z,27.80
2018-08-28T09:54:23.839Z,27.84
2018-08-28T09:55:23.895Z,27.71
2018-08-28T09:56:23.972Z,27.23
2018-08-28T09:57:24.044Z,27.21
2018-08-28T09:58:24.067Z,27.66
2018-08-28T09:59:24.121Z,27.73
2018-08-28T10:00:24.184Z,27.59
2018-08-28T10:01:24.239Z,27.46
2018-08-28T10:02:24.319Z,27.23
2018-08-28T10:03:24.358Z,26.80
2018-08-28T10:04:24.408Z,26.43
2018-08-28T10:05:24.461Z,26.28
2018-08-28T10:06:24.520Z,26.09
2018-08-28T10:07:24.599Z,26.49
2018-08-28T10:08:24.658Z,27.17
2018-08-28T10:09:24.692Z,27.77
2018-08-28T10:10:24.748Z,27.51
2018-08-28T10:11:24.805Z,27.04
2018-08-28T10:12:24.916Z,26.84
2018-08-28T10:13:24.939Z,26.84
2018-08-28T10:14:24.979Z,26.86
2018-08-28T10:15:25.039Z,27.32
2018-08-28T10:16:25.087Z,27.76
2018-08-28T10:17:25.223Z,27.42
2018-08-28T10:18:25.244Z,27.23
2018-08-28T10:19:25.327Z,26.89
2018-08-28T10:20:25.322Z,26.24
2018-08-28T10:21:25.391Z,26.25
2018-08-28T10:22:25.425Z,26.28
2018-08-28T10:23:25.487Z,26.69
2018-08-28T10:24:25.677Z,26.64
2018-08-28T10:25:25.590Z,26.80
2018-08-28T10:26:25.657Z,26.52
2018-08-28T10:27:25.707Z,26.84
2018-08-28T10:28:25.767Z,26.81
2018-08-28T10:29:25.842Z,27.06
2018-08-28T10:30:26.003Z,26.86
2018-08-28T10:31:26.024Z,26.86
2018-08-28T10:32:26.002Z,26.64
2018-08-28T10:33:26.041Z,26.47
2018-08-28T10:34:26.141Z,26.32
2018-08-28T10:35:26.169Z,26.98
2018-08-28T10:36:26.239Z,27.24
2018-08-28T10:37:26.268Z,27.64
2018-08-28T10:38:26.419Z,27.48
2018-08-28T10:39:26.388Z,27.50
2018-08-28T10:40:26.438Z,27.17
2018-08-28T10:41:26.539Z,27.51
2018-08-28T10:42:26.566Z,27.46
2018-08-28T10:43:26.608Z,27.39
2018-08-28T10:44:26.659Z,26.80
2018-08-28T10:45:26.727Z,27.09
2018-08-28T10:46:26.851Z,27.16
2018-08-28T10:47:26.835Z,27.01
2018-08-28T10:48:26.892Z,27.06
2018-08-28T10:49:26.948Z,27.20
2018-08-28T10:50:27.061Z,27.85
2018-08-28T10:51:27.057Z,27.33
2018-08-28T10:52:27.111Z,27.32
2018-08-28T10:53:27.174Z,27.67
2018-08-28T10:54:27.225Z,28.10
2018-08-28T10:55:27.299Z,28.32
2018-08-28T10:56:27.335Z,28.69
2018-08-28T10:57:27.497Z,28.44
2018-08-28T10:58:27.489Z,28.43
2018-08-28T10:59:27.505Z,28.68
2018-08-28T11:00:27.572Z,28.59
2018-08-28T11:01:27.620Z,28.47
2018-08-28T11:02:27.701Z,28.09
2018-08-28T11:03:27.741Z,27.61
2018-08-28T11:04:27.840Z,27.62
2018-08-28T11:05:27.859Z,27.73
2018-08-28T11:06:27.914Z,27.76
2018-08-28T11:07:27.985Z,27.41
2018-08-28T11:08:28.028Z,26.92
2018-08-28T11:09:28.085Z,27.31
2018-08-28T11:10:28.150Z,27.82
2018-08-28T11:11:28.191Z,28.51
2018-08-28T11:12:28.270Z,28.87
2018-08-28T11:13:28.308Z,27.77
2018-08-28T11:14:28.372Z,26.84
2018-08-28T11:15:28.425Z,26.65
2018-08-28T11:16:28.510Z,26.22
2018-08-28T11:17:28.557Z,26.49
2018-08-28T11:18:28.599Z,26.77
2018-08-28T11:19:28.668Z,26.57
2018-08-28T11:20:28.714Z,26.47
2018-08-28T11:21:28.785Z,26.49
2018-08-28T11:22:28.819Z,26.62
2018-08-28T11:23:28.917Z,26.91
2018-08-28T11:24:28.933Z,26.72
2018-08-28T11:25:28.989Z,26.46
2018-08-28T11:26:29.068Z,26.76
2018-08-28T11:27:29.101Z,26.46
2018-08-28T11:28:29.164Z,26.21
2018-08-28T11:29:29.218Z,26.42
2018-08-28T11:30:29.276Z,26.47
2018-08-28T11:31:29.391Z,26.31
2018-08-28T11:32:29.389Z,25.97
2018-08-28T11:33:29.447Z,25.80
2018-08-28T11:34:29.544Z,25.98
2018-08-28T11:35:29.563Z,26.17
2018-08-28T11:36:29.615Z,26.32
2018-08-28T11:37:29.669Z,26.27
2018-08-28T11:38:29.757Z,26.84
2018-08-28T11:39:29.816Z,27.39
2018-08-28T11:40:29.849Z,27.80
2018-08-28T11:41:29.897Z,27.86
2018-08-28T11:42:29.970Z,28.25
2018-08-28T11:43:30.025Z,28.36
2018-08-28T11:44:30.062Z,28.28
2018-08-28T11:45:30.130Z,28.31
2018-08-28T11:46:30.227Z,28.01
2018-08-28T11:47:30.257Z,28.06
2018-08-28T11:48:30.297Z,28.09
2018-08-28T11:49:30.359Z,28.31
2018-08-28T11:50:30.410Z,28.43
2018-08-28T11:51:30.482Z,28.82
2018-08-28T11:52:30.602Z,29.06
2018-08-28T11:53:30.578Z,29.29
2018-08-28T11:54:30.640Z,29.56
2018-08-28T11:55:30.707Z,30.12
2018-08-28T11:56:30.782Z,30.43
2018-08-28T11:57:30.845Z,30.57
2018-08-28T11:58:30.889Z,30.87
2018-08-28T11:59:30.932Z,31.13
2018-08-28T12:00:30.992Z,31.13
2018-08-28T12:01:31.043Z,31.36
2018-08-28T12:02:31.143Z,31.40
2018-08-28T12:03:31.168Z,31.30
2018-08-28T12:04:31.221Z,31.31
2018-08-28T12:05:31.324Z,31.48
2018-08-28T12:06:31.344Z,31.45
2018-08-28T12:07:31.512Z,31.50
2018-08-28T12:08:31.465Z,31.70
2018-08-28T12:09:31.519Z,31.75
2018-08-28T12:10:31.591Z,31.82
2018-08-28T12:11:31.639Z,31.72
2018-08-28T12:12:31.733Z,31.21
2018-08-28T12:13:31.765Z,30.72
2018-08-28T12:14:31.831Z,30.26
2018-08-28T12:15:31.879Z,30.36
2018-08-28T12:16:31.941Z,30.37
2018-08-28T12:17:32.027Z,30.54
2018-08-28T12:18:32.220Z,30.75
2018-08-28T12:19:32.161Z,30.53
2018-08-28T12:20:32.211Z,30.03
2018-08-28T12:21:32.245Z,29.78
2018-08-28T12:22:32.328Z,29.63
2018-08-28T12:23:32.375Z,29.49
2018-08-28T12:24:32.447Z,29.68
2018-08-28T12:25:32.488Z,29.78
2018-08-28T12:26:32.568Z,29.53
2018-08-28T12:27:32.623Z,29.19
2018-08-28T12:28:32.694Z,29.47
2018-08-28T12:29:32.767Z,29.44
2018-08-28T12:30:32.905Z,29.25
2018-08-28T12:31:32.867Z,29.35
2018-08-28T12:32:32.919Z,29.68
2018-08-28T12:33:32.995Z,30.11
2018-08-28T12:34:33.034Z,30.54
2018-08-28T12:35:33.101Z,30.84
2018-08-28T12:36:33.177Z,31.23
2018-08-28T12:37:33.220Z,31.28
2018-08-28T12:38:33.328Z,31.31
2018-08-28T12:39:33.373Z,30.81
2018-08-28T12:40:33.400Z,30.76
2018-08-28T12:41:33.465Z,30.71
2018-08-28T12:42:33.613Z,30.86
2018-08-28T12:43:33.579Z,31.08
2018-08-28T12:44:33.682Z,31.23
2018-08-28T12:45:33.705Z,31.36
2018-08-28T12:46:33.774Z,31.46
2018-08-28T12:47:33.830Z,31.55
2018-08-28T12:48:33.892Z,31.54
2018-08-28T12:49:34.017Z,31.49
2018-08-28T12:50:34.034Z,31.38
2018-08-28T12:51:34.075Z,31.40
2018-08-28T12:52:34.152Z,31.35
2018-08-28T12:53:34.205Z,30.80
2018-08-28T12:54:34.270Z,30.61
2018-08-28T12:55:34.342Z,30.74
2018-08-28T12:56:34.393Z,30.65
2018-08-28T12:57:34.457Z,30.34
2018-08-28T12:58:34.515Z,29.68
2018-08-28T12:59:34.572Z,28.95
2018-08-28T13:00:34.717Z,28.38
2018-08-28T13:01:34.698Z,28.10
2018-08-28T13:02:35.011Z,28.31
2018-08-28T13:03:34.820Z,28.65
2018-08-28T13:04:34.883Z,28.80
2018-08-28T13:05:34.955Z,29.25
2018-08-28T13:06:35.064Z,29.56
2018-08-28T13:07:35.170Z,30.00
2018-08-28T13:08:35.128Z,30.46
2018-08-28T13:09:35.192Z,30.81
2018-08-28T13:10:35.262Z,31.17
2018-08-28T13:11:35.330Z,31.40
2018-08-28T13:12:35.415Z,30.49
2018-08-28T13:13:35.441Z,29.99
2018-08-28T13:14:35.536Z,29.89
2018-08-28T13:15:35.557Z,30.26
2018-08-28T13:16:35.632Z,30.45
2018-08-28T13:17:37.532Z,30.45
2018-08-28T13:18:36.371Z,30.64
2018-08-28T13:19:35.810Z,30.49
2018-08-28T13:20:35.868Z,30.50
2018-08-28T13:21:35.931Z,30.53
2018-08-28T13:22:35.991Z,30.50
2018-08-28T13:23:36.080Z,30.23
2018-08-28T13:24:36.118Z,29.87
2018-08-28T13:25:36.279Z,29.97
2018-08-28T13:26:36.247Z,30.24
2018-08-28T13:27:36.308Z,30.34
2018-08-28T13:28:36.400Z,30.37
2018-08-28T13:29:36.430Z,30.49
2018-08-28T13:30:36.596Z,30.56
2018-08-28T13:31:36.562Z,30.62
2018-08-28T13:32:36.620Z,30.75
2018-08-28T13:33:36.714Z,30.67
2018-08-28T13:34:36.748Z,30.68
2018-08-28T13:35:36.807Z,30.90
2018-08-28T13:36:36.867Z,31.11
2018-08-28T13:37:36.950Z,30.91
2018-08-28T13:38:37.015Z,31.05
2018-08-28T13:39:37.071Z,31.15
2018-08-28T13:40:37.250Z,31.15
2018-08-28T13:41:37.196Z,30.99
2018-08-28T13:42:37.350Z,31.06
2018-08-28T13:43:37.311Z,30.84
2018-08-28T13:44:37.400Z,30.62
2018-08-28T13:45:37.445Z,30.45
2018-08-28T13:46:37.499Z,30.50
2018-08-28T13:47:37.557Z,30.52
2018-08-28T13:48:37.627Z,30.57
2018-08-28T13:49:37.726Z,30.57
2018-08-28T13:50:37.774Z,30.54
2018-08-28T13:51:37.823Z,30.53
2018-08-28T13:52:37.877Z,30.69
2018-08-28T13:53:38.034Z,30.86
2018-08-28T13:54:38.005Z,30.83
2018-08-28T13:55:38.093Z,30.98
2018-08-28T13:56:38.162Z,31.13
2018-08-28T13:57:38.193Z,30.87
2018-08-28T13:58:38.273Z,31.06
2018-08-28T13:59:38.324Z,30.86
2018-08-28T14:00:38.409Z,30.84
2018-08-28T14:01:38.455Z,30.84
2018-08-28T14:02:38.516Z,31.11
2018-08-28T14:03:38.575Z,31.23
2018-08-28T14:04:38.641Z,31.17
2018-08-28T14:05:38.737Z,31.08
2018-08-28T14:06:38.802Z,31.05
2018-08-28T14:07:38.837Z,30.87
2018-08-28T14:08:38.901Z,30.76
2018-08-28T14:09:38.967Z,30.87
2018-08-28T14:10:39.038Z,30.80
2018-08-28T14:11:39.159Z,31.04
2018-08-28T14:12:39.147Z,31.26
2018-08-28T14:13:39.263Z,31.42
2018-08-28T14:14:39.296Z,31.28
2018-08-28T14:15:39.338Z,31.26
2018-08-28T14:16:39.424Z,31.35
2018-08-28T14:17:39.492Z,31.48
2018-08-28T14:18:39.530Z,30.93
2018-08-28T14:19:39.592Z,31.11
2018-08-28T14:20:39.684Z,30.36
2018-08-28T14:21:39.731Z,29.60
2018-08-28T14:22:39.885Z,29.26
2018-08-28T14:23:39.882Z,29.40
2018-08-28T14:24:39.914Z,29.41
2018-08-28T14:25:39.978Z,29.84
2018-08-28T14:26:40.049Z,29.44
2018-08-28T14:27:40.106Z,29.40
2018-08-28T14:28:40.228Z,29.62
2018-08-28T14:29:40.240Z,29.60
2018-08-28T14:30:40.314Z,29.49
2018-08-28T14:31:40.360Z,29.94
2018-08-28T14:32:40.432Z,30.23
2018-08-28T14:33:40.531Z,30.59
2018-08-28T14:34:40.555Z,30.47
2018-08-28T14:35:40.639Z,30.15
2018-08-28T14:36:40.677Z,30.31
2018-08-28T14:37:40.742Z,30.46
2018-08-28T14:38:40.828Z,30.61
2018-08-28T14:39:40.885Z,30.56
2018-08-28T14:40:40.939Z,30.05
2018-08-28T14:41:40.996Z,29.78
2018-08-28T14:42:41.093Z,29.45
2018-08-28T14:43:41.142Z,29.25
2018-08-28T14:44:41.202Z,29.31
2018-08-28T14:45:41.257Z,28.60
2018-08-28T14:46:41.314Z,28.32
2018-08-28T14:47:41.382Z,28.31
2018-08-28T14:48:41.467Z,28.21
2018-08-28T14:49:41.513Z,28.85
2018-08-28T14:50:41.596Z,29.19
2018-08-28T14:51:41.655Z,29.37
2018-08-28T14:52:41.730Z,29.34
2018-08-28T14:53:41.756Z,29.60
2018-08-28T14:54:41.826Z,30.14
2018-08-28T14:55:41.877Z,30.45
2018-08-28T14:56:41.992Z,30.11
2018-08-28T14:57:42.016Z,30.56
2018-08-28T14:58:42.072Z,30.86
2018-08-28T14:59:42.142Z,30.98
2018-08-28T15:00:42.202Z,31.28
2018-08-28T15:01:42.280Z,31.50
2018-08-28T15:02:42.337Z,31.70
2018-08-28T15:03:42.399Z,31.88
2018-08-28T15:04:42.503Z,32.14
2018-08-28T15:05:42.512Z,32.27
2018-08-28T15:06:42.605Z,32.36
2018-08-28T15:07:42.640Z,32.43
2018-08-28T15:08:42.705Z,32.55
2018-08-28T15:09:42.778Z,32.66
2018-08-28T15:10:42.833Z,32.49
2018-08-28T15:11:42.926Z,32.49
2018-08-28T15:12:42.979Z,32.61
2018-08-28T15:13:43.031Z,32.59
2018-08-28T15:14:43.095Z,32.86
2018-08-28T15:15:43.172Z,33.07
2018-08-28T15:16:43.293Z,33.22
2018-08-28T15:17:43.311Z,33.04
2018-08-28T15:18:43.354Z,32.98
2018-08-28T15:19:43.457Z,32.66
2018-08-28T15:20:43.491Z,32.81
2018-08-28T15:21:43.550Z,33.04
2018-08-28T15:22:43.622Z,33.04
2018-08-28T15:23:43.679Z,33.03
2018-08-28T15:24:43.774Z,32.59
2018-08-28T15:25:43.857Z,32.44
2018-08-28T15:26:43.917Z,32.48
2018-08-28T15:27:43.954Z,32.58
2018-08-28T15:28:44.018Z,32.57
2018-08-28T15:29:44.110Z,32.79
2018-08-28T15:30:44.141Z,32.85
2018-08-28T15:31:44.221Z,32.69
2018-08-28T15:32:44.368Z,32.24
2018-08-28T15:33:44.354Z,32.44
2018-08-28T15:34:44.405Z,32.39
2018-08-28T15:35:44.487Z,32.55
2018-08-28T15:36:44.536Z,32.25
2018-08-28T15:37:44.616Z,32.32
2018-08-28T15:38:44.705Z,32.58
2018-08-28T15:39:44.733Z,32.81
2018-08-28T15:40:44.834Z,32.71
2018-08-28T15:41:44.896Z,32.52
2018-08-28T15:42:44.929Z,32.35
2018-08-28T15:43:45.026Z,32.27
2018-08-28T15:44:45.070Z,32.00
2018-08-28T15:45:45.126Z,31.75
2018-08-28T15:46:45.219Z,32.06
2018-08-28T15:47:45.256Z,32.14
2018-08-28T15:48:45.326Z,32.35
2018-08-28T15:49:45.419Z,32.35
2018-08-28T15:50:45.457Z,32.58
2018-08-28T15:51:45.559Z,32.48
2018-08-28T15:52:45.602Z,32.44
2018-08-28T15:53:45.657Z,32.05
2018-08-28T15:54:45.742Z,31.76
2018-08-28T15:55:45.785Z,31.64
2018-08-28T15:56:45.865Z,31.31
2018-08-28T15:57:45.915Z,31.80
2018-08-28T15:58:45.990Z,31.85
2018-08-28T15:59:46.058Z,32.07
2018-08-28T16:00:46.133Z,32.02
2018-08-28T16:01:46.183Z,32.06
2018-08-28T16:02:46.252Z,32.13
2018-08-28T16:03:46.312Z,32.10
2018-08-28T16:04:46.451Z,31.73
2018-08-28T16:05:46.459Z,30.94
2018-08-28T16:06:46.499Z,30.03
2018-08-28T16:07:46.583Z,29.59
2018-08-28T16:08:46.634Z,29.35
2018-08-28T16:09:46.712Z,29.00
2018-08-28T16:10:46.763Z,28.82
2018-08-28T16:11:46.843Z,28.60
2018-08-28T16:12:46.913Z,28.41
2018-08-28T16:13:46.942Z,28.25
2018-08-28T16:14:47.009Z,28.19
2018-08-28T16:15:47.074Z,28.14
2018-08-28T16:16:47.472Z,28.10
2018-08-28T16:17:47.223Z,27.98
2018-08-28T16:18:47.262Z,27.86
2018-08-28T16:19:47.306Z,27.92
2018-08-28T16:20:47.376Z,27.86
2018-08-28T16:21:47.430Z,27.84
2018-08-28T16:22:47.514Z,27.79
2018-08-28T16:23:47.569Z,27.82
2018-08-28T16:24:47.617Z,27.74
2018-08-28T16:25:47.672Z,27.48
2018-08-28T16:26:47.722Z,27.39
2018-08-28T16:27:47.854Z,27.35
2018-08-28T16:28:47.853Z,27.38
2018-08-28T16:29:47.904Z,27.36
2018-08-28T16:30:47.956Z,27.39
2018-08-28T16:31:48.048Z,27.41
2018-08-28T16:32:48.063Z,27.39
2018-08-28T16:33:48.178Z,27.29
2018-08-28T16:34:48.189Z,27.28
2018-08-28T16:35:48.283Z,27.33
2018-08-28T16:36:48.297Z,27.28
2018-08-28T16:37:48.351Z,27.23
2018-08-28T16:38:48.471Z,27.16
2018-08-28T16:39:48.463Z,27.01
2018-08-28T16:40:48.579Z,26.94
2018-08-28T16:41:48.586Z,26.84
2018-08-28T16:42:48.699Z,26.62
2018-08-28T16:43:48.697Z,26.62
2018-08-28T16:44:48.744Z,26.55
2018-08-28T16:45:48.825Z,26.58
2018-08-28T16:46:48.885Z,26.49
2018-08-28T16:47:48.917Z,26.49
2018-08-28T16:48:48.968Z,26.55
2018-08-28T16:49:49.019Z,26.49
2018-08-28T16:50:49.144Z,26.54
2018-08-28T16:51:49.143Z,26.47
2018-08-28T16:52:49.190Z,26.40
2018-08-28T16:53:49.243Z,26.28
2018-08-28T16:54:49.299Z,26.28
2018-08-28T16:55:49.487Z,26.24
2018-08-28T16:56:49.409Z,26.21
2018-08-28T16:57:49.525Z,26.20
2018-08-28T16:58:49.518Z,26.17
2018-08-28T16:59:49.572Z,26.12
2018-08-28T17:00:49.646Z,26.12
2018-08-28T17:01:49.765Z,26.06
2018-08-28T17:02:49.746Z,25.98
2018-08-28T17:03:49.825Z,25.91
2018-08-28T17:04:49.867Z,25.91
2018-08-28T17:05:49.928Z,25.97
2018-08-28T17:06:49.968Z,25.82
2018-08-28T17:07:50.043Z,25.84
2018-08-28T17:08:50.073Z,25.84
2018-08-28T17:09:50.137Z,25.74
2018-08-28T17:10:50.177Z,25.79
2018-08-28T17:11:50.231Z,25.69
2018-08-28T17:12:50.308Z,25.69
2018-08-28T17:13:50.341Z,25.62
2018-08-28T17:14:50.413Z,25.54
2018-08-28T17:15:50.461Z,25.56
2018-08-28T17:16:50.576Z,25.49
2018-08-28T17:17:50.582Z,25.42
2018-08-28T17:18:50.625Z,25.43
2018-08-28T17:19:50.674Z,25.43
2018-08-28T17:20:50.725Z,25.28
2018-08-28T17:21:50.799Z,25.25
2018-08-28T17:22:50.853Z,25.20
2018-08-28T17:23:50.918Z,25.19
2018-08-28T17:24:50.950Z,25.20
2018-08-28T17:25:51.005Z,25.16
2018-08-28T17:26:51.674Z,25.09
2018-08-28T17:27:51.142Z,25.12
2018-08-28T17:28:51.175Z,25.07
2018-08-28T17:29:51.212Z,25.09
2018-08-28T17:30:51.293Z,25.07
2018-08-28T17:31:51.328Z,24.95
2018-08-28T17:32:51.398Z,24.91
2018-08-28T17:33:51.428Z,24.80
2018-08-28T17:34:51.497Z,24.90
2018-08-28T17:35:52.682Z,24.82
2018-08-28T17:36:51.610Z,24.82
2018-08-28T17:37:51.674Z,24.83
2018-08-28T17:38:52.185Z,24.75
2018-08-28T17:39:51.753Z,24.60
2018-08-28T17:40:51.826Z,24.67
2018-08-28T17:41:52.720Z,24.68
2018-08-28T17:42:51.916Z,24.50
2018-08-28T17:43:51.971Z,24.47
2018-08-28T17:44:52.055Z,24.53
2018-08-28T17:45:52.088Z,24.50
2018-08-28T17:46:52.684Z,24.50
2018-08-28T17:47:52.190Z,24.39
2018-08-28T17:48:52.298Z,24.39
2018-08-28T17:49:52.358Z,24.35
2018-08-28T17:50:52.353Z,24.32
2018-08-28T17:51:52.424Z,24.20
2018-08-28T17:52:52.452Z,24.22
2018-08-28T17:53:52.512Z,24.12
2018-08-28T17:54:52.581Z,24.22
2018-08-28T17:55:52.624Z,24.10
2018-08-28T17:56:52.747Z,24.10
2018-08-28T17:57:52.729Z,24.07
2018-08-28T17:58:52.774Z,24.05
2018-08-28T17:59:53.500Z,23.98
2018-08-28T18:00:52.907Z,23.97
2018-08-28T18:01:52.951Z,23.87
2018-08-28T18:02:53.026Z,23.89
2018-08-28T18:03:53.062Z,23.85
2018-08-28T18:04:53.102Z,23.82
2018-08-28T18:05:53.176Z,23.76
2018-08-28T18:06:53.995Z,23.71
2018-08-28T18:07:53.264Z,23.76
2018-08-28T18:08:53.361Z,23.76
2018-08-28T18:09:53.375Z,23.72
2018-08-28T18:10:53.421Z,23.62
2018-08-28T18:11:53.513Z,23.57
2018-08-28T18:12:53.542Z,23.60
2018-08-28T18:13:53.577Z,23.49
2018-08-28T18:14:53.637Z,23.50
2018-08-28T18:15:53.728Z,23.49
2018-08-28T18:16:53.768Z,23.42
2018-08-28T18:17:54.192Z,23.31
2018-08-28T18:18:53.845Z,23.39
2018-08-28T18:19:53.892Z,23.27
2018-08-28T18:20:53.944Z,23.27
2018-08-28T18:21:54.037Z,23.26
2018-08-28T18:22:54.066Z,23.20
2018-08-28T18:23:54.119Z,23.19
2018-08-28T18:24:54.154Z,23.23
2018-08-28T18:25:54.211Z,23.24
2018-08-28T18:26:55.065Z,23.23
2018-08-28T18:27:54.332Z,23.12
2018-08-28T18:28:54.446Z,23.08
2018-08-28T18:29:54.433Z,23.09
2018-08-28T18:30:54.481Z,23.07
2018-08-28T18:31:54.526Z,23.08
2018-08-28T18:32:54.619Z,22.93
2018-08-28T18:33:54.676Z,22.93
2018-08-28T18:34:54.685Z,22.93
2018-08-28T18:35:54.789Z,22.84
2018-08-28T18:36:54.810Z,22.84
2018-08-28T18:37:54.854Z,22.83
2018-08-28T18:38:54.932Z,22.83
2018-08-28T18:39:54.957Z,22.72
2018-08-28T18:40:55.069Z,22.69
2018-08-28T18:41:55.061Z,22.71
2018-08-28T18:42:55.123Z,22.65
2018-08-28T18:43:55.185Z,22.59
2018-08-28T18:44:55.224Z,22.62
2018-08-28T18:45:55.266Z,22.52
2018-08-28T18:46:55.369Z,22.50
2018-08-28T18:47:55.386Z,22.50
2018-08-28T18:48:55.455Z,22.49
2018-08-28T18:49:56.202Z,22.31
2018-08-28T18:50:55.542Z,22.28
2018-08-28T18:51:55.585Z,22.16
2018-08-28T18:52:55.639Z,22.04
2018-08-28T18:53:55.721Z,22.07
2018-08-28T18:54:55.737Z,21.97
2018-08-28T18:55:55.832Z,21.91
2018-08-28T18:56:55.850Z,21.88
2018-08-28T18:57:56.705Z,21.76
2018-08-28T18:58:55.976Z,21.81
2018-08-28T18:59:56.746Z,21.90
2018-08-28T19:00:56.705Z,21.83
2018-08-28T19:01:56.102Z,21.85
2018-08-28T19:02:56.333Z,21.81
2018-08-28T19:03:56.236Z,21.72
2018-08-28T19:04:56.748Z,21.67
2018-08-28T19:05:56.327Z,21.66
2018-08-28T19:06:56.401Z,21.56
2018-08-28T19:07:56.419Z,21.60
2018-08-28T19:08:56.539Z,21.59
2018-08-28T19:09:56.644Z,21.51
2018-08-28T19:10:56.586Z,21.48
2018-08-28T19:11:56.651Z,21.48
2018-08-28T19:12:56.681Z,21.53
2018-08-28T19:13:57.210Z,21.48
2018-08-28T19:14:56.784Z,21.51
2018-08-28T19:15:56.853Z,21.53
2018-08-28T19:16:56.899Z,21.48
2018-08-28T19:17:56.956Z,21.42
2018-08-28T19:18:57.054Z,21.38
2018-08-28T19:19:57.046Z,21.39
2018-08-28T19:20:57.124Z,21.34
2018-08-28T19:21:57.145Z,21.34
2018-08-28T19:22:57.196Z,21.26
2018-08-28T19:23:57.303Z,21.19
2018-08-28T19:24:57.304Z,21.16
2018-08-28T19:25:57.381Z,21.20
2018-08-28T19:26:57.407Z,21.19
2018-08-28T19:27:57.464Z,21.23
2018-08-28T19:28:57.633Z,21.16
2018-08-28T19:29:57.575Z,21.13
2018-08-28T19:30:57.620Z,21.09
2018-08-28T19:31:57.673Z,21.06
2018-08-28T19:32:57.723Z,21.06
2018-08-28T19:33:58.242Z,21.01
2018-08-28T19:35:01.727Z,21.05
2018-08-28T19:35:57.883Z,21.01
2018-08-28T19:36:57.931Z,21.09
2018-08-28T19:37:57.975Z,20.95
2018-08-28T19:38:58.064Z,21.02
2018-08-28T19:39:58.094Z,20.95
2018-08-28T19:40:58.140Z,20.90
2018-08-28T19:41:58.185Z,20.96
2018-08-28T19:42:58.235Z,20.98
2018-08-28T19:43:58.352Z,20.93
2018-08-28T19:44:58.347Z,20.90
2018-08-28T19:45:58.391Z,20.93
2018-08-28T19:46:58.474Z,20.91
2018-08-28T19:47:58.495Z,20.91
2018-08-28T19:48:58.546Z,20.96
2018-08-28T19:49:58.629Z,20.89
2018-08-28T19:50:58.648Z,20.95
2018-08-28T19:51:58.730Z,20.80
2018-08-28T19:52:58.761Z,20.90
2018-08-28T19:53:58.824Z,20.83
2018-08-28T19:54:58.859Z,20.91
2018-08-28T19:55:58.923Z,20.93
2018-08-28T19:56:59.002Z,20.86
2018-08-28T19:57:59.026Z,20.80
2018-08-28T19:58:59.068Z,20.90
2018-08-28T19:59:59.127Z,20.81
2018-08-28T20:00:59.190Z,20.84